Time;durP1;ratioP1;P1;durP2;ratioP2;P2;SDS_P1;SDS_P2;PMS_P1;PMS_P2;Temp;Humidity;BMP_temperature;BMP_pressure;BME280_temperature;BME280_humidity;BME280_pressure;Samples;Min_cycle;Max_cycle;Signal;HPM_P1;HPM_P2
2023/03/27 00:01:18;;;;;;;2.00;0.05;;;2.10;26.50;;;;;;5039165;28;20040;-83
2023/03/27 00:03:47;;;;;;;0.00;0.00;;;2.10;27.10;;;;;;5056859;28;20055;-83
2023/03/27 00:06:15;;;;;;;0.00;0.00;;;2.10;29.90;;;;;;5055950;28;20414;-83
2023/03/27 00:08:42;;;;;;;0.00;0.00;;;2.00;30.60;;;;;;5055755;28;20552;-83
2023/03/27 00:11:08;;;;;;;0.00;0.00;;;1.90;26.70;;;;;;5056803;28;20047;-83
2023/03/27 00:13:35;;;;;;;0.00;0.00;;;1.90;33.00;;;;;;5055892;28;20051;-82
2023/03/27 00:16:01;;;;;;;0.00;0.00;;;1.80;35.00;;;;;;5055841;28;20057;-83
2023/03/27 00:18:28;;;;;;;0.00;0.00;;;1.90;35.10;;;;;;5023709;28;20053;-83
2023/03/27 00:20:57;;;;;;;0.00;0.00;;;1.80;34.50;;;;;;5023244;28;20048;-82
2023/03/27 00:23:24;;;;;;;0.00;0.00;;;1.80;34.20;;;;;;5042178;28;20044;-83
2023/03/27 00:25:51;;;;;;;0.00;0.00;;;1.80;36.50;;;;;;5062557;28;20045;-82
2023/03/27 00:28:17;;;;;;;0.00;0.00;;;1.80;36.90;;;;;;5061289;28;20080;-82
2023/03/27 00:30:43;;;;;;;0.00;0.00;;;1.70;36.20;;;;;;5055765;28;20055;-82
2023/03/27 00:33:12;;;;;;;0.03;0.03;;;2.00;39.20;;;;;;5038986;28;20044;-82
2023/03/27 00:35:43;;;;;;;0.00;0.00;;;1.60;42.40;;;;;;5006247;28;20044;-83
2023/03/27 00:38:08;;;;;;;0.00;0.00;;;1.70;44.10;;;;;;5055386;28;20049;-82
2023/03/27 00:40:36;;;;;;;0.00;0.00;;;1.60;43.70;;;;;;5038769;28;20048;-83
2023/03/27 00:43:17;;;;;;;0.90;0.35;;;1.60;43.10;;;;;;5038554;28;20056;-83
2023/03/27 00:45:43;;;;;;;0.00;0.00;;;1.60;43.20;;;;;;5024596;28;20052;-82
2023/03/27 00:48:09;;;;;;;0.00;0.00;;;1.60;44.80;;;;;;5038311;28;20045;-83
2023/03/27 00:50:40;;;;;;;0.00;0.00;;;1.60;42.10;;;;;;5021324;28;20183;-83
2023/03/27 00:53:10;;;;;;;0.00;0.00;;;1.50;43.40;;;;;;5055977;28;20098;-82
2023/03/27 00:55:39;;;;;;;0.00;0.00;;;1.50;42.70;;;;;;5055948;28;20397;-82
2023/03/27 00:58:12;;;;;;;0.00;0.00;;;1.50;37.40;;;;;;5054971;28;20049;-82
2023/03/27 01:00:38;;;;;;;0.00;0.00;;;1.50;43.30;;;;;;5055780;28;20040;-82
2023/03/27 01:03:06;;;;;;;0.00;0.00;;;1.50;38.90;;;;;;5054591;28;20098;-82
2023/03/27 01:05:33;;;;;;;0.00;0.00;;;1.60;38.60;;;;;;5054913;28;20056;-82
2023/03/27 01:07:59;;;;;;;0.20;0.20;;;1.80;49.70;;;;;;5038048;28;20114;-83
2023/03/27 01:10:41;;;;;;;0.00;0.00;;;1.60;49.10;;;;;;5021540;28;20053;-83
2023/03/27 01:13:18;;;;;;;2.22;0.20;;;1.60;53.60;;;;;;5037971;28;20045;-83
2023/03/27 01:15:53;;;;;;;0.00;0.00;;;1.70;56.50;;;;;;5055336;28;20052;-82
2023/03/27 01:18:28;;;;;;;0.00;0.00;;;1.70;56.20;;;;;;5054396;28;20091;-83
2023/03/27 01:20:57;;;;;;;0.00;0.00;;;1.70;56.40;;;;;;5037752;28;20045;-82
2023/03/27 01:24:00;;;;;;;0.00;0.00;;;1.70;55.30;;;;;;5055390;28;20056;-82
2023/03/27 01:27:00;;;;;;;0.00;0.00;;;1.70;53.90;;;;;;5038577;28;20056;-82
2023/03/27 01:29:45;;;;;;;0.00;0.00;;;1.70;53.50;;;;;;5054105;28;20109;-82
2023/03/27 01:32:43;;;;;;;0.25;0.25;;;1.60;54.30;;;;;;5038651;28;20045;-83
2023/03/27 01:35:37;;;;;;;0.10;0.10;;;1.60;52.40;;;;;;5054602;28;20045;-83
2023/03/27 01:38:28;;;;;;;0.00;0.00;;;1.50;53.30;;;;;;5054145;28;20053;-83
2023/03/27 01:41:06;;;;;;;0.00;0.00;;;1.50;52.60;;;;;;5038444;28;20388;-82
2023/03/27 01:43:44;;;;;;;0.00;0.00;;;1.40;49.10;;;;;;5055000;28;20362;-83
2023/03/27 01:46:36;;;;;;;0.00;0.00;;;1.40;51.10;;;;;;5054910;28;20087;-83
2023/03/27 01:49:09;;;;;;;0.00;0.00;;;1.30;52.80;;;;;;5022011;28;20570;-82
2023/03/27 01:51:38;;;;;;;0.00;0.00;;;1.30;54.50;;;;;;5053942;28;20183;-82
2023/03/27 01:54:28;;;;;;;0.00;0.00;;;1.30;56.90;;;;;;5054702;28;20044;-82
2023/03/27 01:57:09;;;;;;;0.00;0.00;;;1.30;54.70;;;;;;5054683;28;20048;-82
2023/03/27 01:59:41;;;;;;;0.00;0.00;;;1.20;52.90;;;;;;5037457;28;20103;-82
2023/03/27 02:02:16;;;;;;;0.00;0.00;;;1.20;51.20;;;;;;5037331;28;20053;-82
2023/03/27 02:05:04;;;;;;;0.00;0.00;;;1.20;50.60;;;;;;5054632;28;20048;-83
2023/03/27 02:07:41;;;;;;;0.00;0.00;;;1.10;52.10;;;;;;5037729;28;20052;-83
2023/03/27 02:10:16;;;;;;;0.00;0.00;;;1.20;54.00;;;;;;5054434;28;20048;-82
2023/03/27 02:13:00;;;;;;;0.70;0.70;;;1.20;54.60;;;;;;5037659;28;20044;-83
2023/03/27 02:15:35;;;;;;;0.00;0.00;;;1.20;55.00;;;;;;5053590;28;20080;-82
2023/03/27 02:18:08;;;;;;;0.05;0.00;;;1.10;54.30;;;;;;5053962;28;20441;-82
2023/03/27 02:20:36;;;;;;;0.00;0.00;;;1.10;52.30;;;;;;5037052;28;20512;-82
2023/03/27 02:23:03;;;;;;;0.00;0.00;;;1.20;56.10;;;;;;5053350;28;20084;-83
2023/03/27 02:25:39;;;;;;;0.00;0.00;;;1.10;55.50;;;;;;5037588;28;20095;-82
2023/03/27 02:28:26;;;;;;;0.00;0.00;;;1.10;56.10;;;;;;5053273;28;20040;-83
2023/03/27 02:31:01;;;;;;;0.03;0.03;;;1.10;59.80;;;;;;5036750;28;20157;-82
2023/03/27 02:33:42;;;;;;;0.00;0.00;;;1.10;60.30;;;;;;5036358;28;20056;-82
2023/03/27 02:36:23;;;;;;;0.00;0.00;;;1.10;61.60;;;;;;5053490;28;20041;-81
2023/03/27 02:38:59;;;;;;;2.47;0.55;;;1.10;59.00;;;;;;5053368;28;20187;-82
2023/03/27 02:41:49;;;;;;;0.00;0.00;;;1.20;59.50;;;;;;5053367;28;20044;-82
2023/03/27 02:44:33;;;;;;;0.00;0.00;;;1.10;62.20;;;;;;5052658;28;20041;-82
2023/03/27 02:47:09;;;;;;;0.00;0.00;;;1.10;61.10;;;;;;5036595;28;20041;-83
2023/03/27 02:49:40;;;;;;;0.00;0.00;;;1.10;61.80;;;;;;5052927;28;20048;-83
2023/03/27 02:52:17;;;;;;;0.00;0.00;;;1.10;63.40;;;;;;5036617;28;20132;-83
2023/03/27 02:54:49;;;;;;;0.00;0.00;;;1.10;62.80;;;;;;5037123;28;20053;-82
2023/03/27 02:57:21;;;;;;;0.00;0.00;;;1.10;63.70;;;;;;5053634;28;20091;-83
2023/03/27 02:59:52;;;;;;;0.00;0.00;;;1.00;64.00;;;;;;5036414;28;20385;-82
2023/03/27 03:02:31;;;;;;;1.13;0.10;;;1.00;64.70;;;;;;5052406;28;20122;-83
2023/03/27 03:05:04;;;;;;;0.00;0.00;;;1.10;65.80;;;;;;5036408;28;20098;-83
2023/03/27 03:07:33;;;;;;;0.00;0.00;;;1.10;66.80;;;;;;5052376;28;20045;-82
2023/03/27 03:10:00;;;;;;;0.90;0.40;;;1.10;67.90;;;;;;5036485;28;20373;-83
2023/03/27 03:12:26;;;;;;;0.00;0.00;;;1.10;68.50;;;;;;5036572;28;20048;-82
2023/03/27 03:14:52;;;;;;;0.00;0.00;;;1.20;71.50;;;;;;5058502;28;20037;-82
2023/03/27 03:17:17;;;;;;;0.00;0.00;;;1.20;72.30;;;;;;5042247;28;20060;-82
2023/03/27 03:19:43;;;;;;;0.00;0.00;;;1.30;73.80;;;;;;5058915;28;20052;-82
2023/03/27 03:22:10;;;;;;;0.45;0.45;;;1.30;76.70;;;;;;5042816;28;20037;-82
2023/03/27 03:24:36;;;;;;;0.00;0.00;;;1.40;78.00;;;;;;5026044;28;20041;-82
2023/03/27 03:27:02;;;;;;;0.00;0.00;;;1.50;61.90;;;;;;5058883;28;20048;-82
2023/03/27 03:29:28;;;;;;;0.00;0.00;;;1.50;65.30;;;;;;5059070;28;20064;-82
2023/03/27 03:31:57;;;;;;;0.00;0.00;;;1.50;71.00;;;;;;5026168;28;20044;-82
2023/03/27 03:34:23;;;;;;;0.00;0.00;;;1.50;64.80;;;;;;5058838;28;20053;-82
2023/03/27 03:36:48;;;;;;;1.27;0.80;;;1.60;71.50;;;;;;5042688;28;20049;-82
2023/03/27 03:39:15;;;;;;;0.00;0.00;;;1.60;56.70;;;;;;5059891;28;20124;-82
2023/03/27 03:41:41;;;;;;;0.00;0.00;;;1.60;66.00;;;;;;5059959;28;20076;-82
2023/03/27 03:44:09;;;;;;;0.00;0.00;;;1.60;68.10;;;;;;5042300;28;20485;-82
2023/03/27 03:46:35;;;;;;;0.00;0.00;;;1.60;72.70;;;;;;5009565;28;20488;-82
2023/03/27 03:49:00;;;;;;;0.57;0.57;;;1.60;75.80;;;;;;5059068;28;20106;-82
2023/03/27 03:51:27;;;;;;;0.00;0.00;;;1.60;72.30;;;;;;5043245;28;20384;-82
2023/03/27 03:53:53;;;;;;;0.00;0.00;;;1.60;75.10;;;;;;5042401;28;20053;-82
2023/03/27 03:56:18;;;;;;;0.00;0.00;;;1.60;78.00;;;;;;5042255;28;20045;-83
2023/03/27 03:58:45;;;;;;;0.00;0.00;;;1.60;80.00;;;;;;5042199;28;20053;-82
2023/03/27 04:01:11;;;;;;;0.00;0.00;;;1.60;82.80;;;;;;5043038;28;20065;-82
2023/03/27 04:03:37;;;;;;;0.00;0.00;;;1.60;84.10;;;;;;5059887;28;20554;-82
2023/03/27 04:06:04;;;;;;;0.00;0.00;;;1.70;80.70;;;;;;5042450;28;20400;-82
2023/03/27 04:08:31;;;;;;;0.00;0.00;;;1.10;74.10;;;;;;5058534;28;20091;-81
2023/03/27 04:10:56;;;;;;;0.00;0.00;;;1.60;84.20;;;;;;5043120;28;20047;-82
2023/03/27 04:13:23;;;;;;;0.00;0.00;;;1.60;86.70;;;;;;5025543;28;20485;-82
2023/03/27 04:15:50;;;;;;;0.00;0.00;;;1.60;87.50;;;;;;5025160;28;20106;-81
2023/03/27 04:18:18;;;;;;;0.00;0.00;;;1.70;83.30;;;;;;5059684;28;20048;-82
2023/03/27 04:20:48;;;;;;;0.00;0.00;;;1.60;82.70;;;;;;5042137;28;20488;-82
2023/03/27 04:23:17;;;;;;;0.00;0.00;;;1.90;85.80;;;;;;5058718;28;20041;-82
2023/03/27 04:25:45;;;;;;;0.00;0.00;;;1.70;79.00;;;;;;5055428;28;20060;-82
2023/03/27 04:28:15;;;;;;;0.00;0.00;;;1.70;85.30;;;;;;5055363;28;20124;-82
2023/03/27 04:30:42;;;;;;;0.00;0.00;;;1.70;81.50;;;;;;5039183;28;20052;-82
2023/03/27 04:33:17;;;;;;;0.00;0.00;;;1.70;83.40;;;;;;5022547;28;20503;-83
2023/03/27 04:35:46;;;;;;;0.00;0.00;;;1.60;85.30;;;;;;5055685;28;20100;-82
2023/03/27 04:38:13;;;;;;;0.00;0.00;;;1.60;84.90;;;;;;5039067;28;20060;-83
2023/03/27 04:40:44;;;;;;;0.00;0.00;;;1.60;83.40;;;;;;5039002;28;20065;-83
2023/03/27 04:43:11;;;;;;;0.00;0.00;;;1.60;83.70;;;;;;5056059;28;20183;-83
2023/03/27 04:45:37;;;;;;;0.00;0.00;;;1.50;83.50;;;;;;5055222;28;20060;-83
2023/03/27 04:48:04;;;;;;;0.00;0.00;;;1.60;82.40;;;;;;5038614;28;20044;-82
2023/03/27 04:50:31;;;;;;;0.00;0.00;;;1.60;81.50;;;;;;5022407;28;20056;-82
2023/03/27 04:52:59;;;;;;;0.00;0.00;;;1.50;79.80;;;;;;5038469;28;20053;-83
2023/03/27 04:55:25;;;;;;;0.00;0.00;;;1.50;79.50;;;;;;5055754;28;20362;-83
2023/03/27 04:57:52;;;;;;;0.00;0.00;;;2.10;82.90;;;;;;5038205;28;20499;-82
2023/03/27 05:00:19;;;;;;;0.00;0.00;;;1.50;83.70;;;;;;5055928;28;20373;-82
2023/03/27 05:02:46;;;;;;;0.00;0.00;;;1.50;82.60;;;;;;5038656;28;20538;-82
2023/03/27 05:05:12;;;;;;;0.00;0.00;;;1.60;85.40;;;;;;5038264;28;20482;-83
2023/03/27 05:07:38;;;;;;;0.00;0.00;;;1.50;87.00;;;;;;5054627;28;20088;-82
2023/03/27 05:10:05;;;;;;;0.00;0.00;;;1.50;89.10;;;;;;5055599;28;20072;-83
2023/03/27 05:12:31;;;;;;;0.00;0.00;;;1.50;89.20;;;;;;5055068;28;20389;-82
2023/03/27 05:14:58;;;;;;;0.00;0.00;;;1.50;88.90;;;;;;5022475;28;20041;-82
2023/03/27 05:17:24;;;;;;;0.00;0.00;;;1.50;89.00;;;;;;5037680;28;20061;-81
2023/03/27 05:19:50;;;;;;;0.55;0.20;;;1.60;89.10;;;;;;5022265;28;20048;-82
2023/03/27 05:22:16;;;;;;;0.00;0.00;;;1.60;88.40;;;;;;5022198;28;20123;-81
2023/03/27 05:24:42;;;;;;;0.10;0.10;;;1.60;88.10;;;;;;5037867;28;20044;-82
2023/03/27 05:27:09;;;;;;;0.00;0.00;;;1.60;88.10;;;;;;5038551;28;20056;-82
2023/03/27 05:29:34;;;;;;;0.00;0.00;;;1.60;79.30;;;;;;5054602;28;20088;-82
2023/03/27 05:32:00;;;;;;;0.00;0.00;;;1.60;83.50;;;;;;5021002;28;20551;-82
2023/03/27 05:34:27;;;;;;;0.00;0.00;;;1.60;77.90;;;;;;5054166;28;20550;-82
2023/03/27 05:36:54;;;;;;;0.00;0.00;;;1.60;75.60;;;;;;5037247;28;20056;-82
2023/03/27 05:39:20;;;;;;;0.20;0.20;;;1.60;80.00;;;;;;5054172;28;20052;-82
2023/03/27 05:41:46;;;;;;;0.00;0.00;;;1.70;76.30;;;;;;5053688;28;20107;-82
2023/03/27 05:44:12;;;;;;;0.00;0.00;;;1.60;77.10;;;;;;5054759;28;20539;-82
2023/03/27 05:46:38;;;;;;;0.00;0.00;;;1.60;80.30;;;;;;5053704;28;20136;-82
2023/03/27 05:49:04;;;;;;;0.00;0.00;;;1.60;75.10;;;;;;5053576;28;20056;-82
2023/03/27 05:51:31;;;;;;;0.00;0.00;;;1.60;75.90;;;;;;5052835;28;20041;-82
2023/03/27 05:53:57;;;;;;;0.00;0.00;;;1.60;78.30;;;;;;5053729;28;20491;-82
2023/03/27 05:56:22;;;;;;;0.00;0.00;;;1.50;77.70;;;;;;5037739;28;20060;-82
2023/03/27 05:58:48;;;;;;;0.00;0.00;;;1.50;78.40;;;;;;5054089;28;20524;-83
2023/03/27 06:01:14;;;;;;;0.00;0.00;;;1.50;77.80;;;;;;5053350;28;20052;-83
2023/03/27 06:03:39;;;;;;;0.00;0.00;;;1.60;80.70;;;;;;5020660;28;20055;-83
2023/03/27 06:06:10;;;;;;;0.00;0.00;;;1.60;84.90;;;;;;5004976;28;20053;-82
2023/03/27 06:08:36;;;;;;;0.00;0.00;;;1.70;83.40;;;;;;5037480;28;20076;-83
2023/03/27 06:11:13;;;;;;;0.00;0.00;;;1.80;79.20;;;;;;5053358;28;20052;-82
2023/03/27 06:13:39;;;;;;;0.10;0.10;;;1.90;80.50;;;;;;5037049;28;20052;-82
2023/03/27 06:16:06;;;;;;;0.00;0.00;;;2.00;80.60;;;;;;5036581;28;20045;-82
2023/03/27 06:18:32;;;;;;;0.00;0.00;;;2.10;85.10;;;;;;5053393;28;20473;-82
2023/03/27 06:20:58;;;;;;;0.10;0.10;;;2.40;88.30;;;;;;5053562;28;20049;-82
2023/03/27 06:23:24;;;;;;;0.00;0.00;;;2.60;89.70;;;;;;5037026;28;20047;-82
2023/03/27 06:25:51;;;;;;;0.00;0.00;;;2.80;78.30;;;;;;5053002;28;20048;-82
2023/03/27 06:28:18;;;;;;;0.00;0.00;;;2.90;73.80;;;;;;5036717;28;20041;-82
2023/03/27 06:30:48;;;;;;;0.00;0.00;;;3.00;69.80;;;;;;5053248;28;20481;-83
2023/03/27 06:33:16;;;;;;;0.10;0.10;;;3.20;68.90;;;;;;5036660;28;20053;-81
2023/03/27 06:35:44;;;;;;;0.00;0.00;;;3.40;57.80;;;;;;5021363;28;20064;-82
2023/03/27 06:38:11;;;;;;;1.05;0.22;;;3.50;55.10;;;;;;5053332;28;20484;-82
2023/03/27 06:40:37;;;;;;;0.00;0.00;;;3.80;59.60;;;;;;5053610;28;20540;-82
2023/03/27 06:43:08;;;;;;;0.22;0.08;;;4.20;46.50;;;;;;5037129;28;20465;-82
2023/03/27 06:45:36;;;;;;;0.03;0.03;;;4.50;28.60;;;;;;5036393;28;20056;-82
2023/03/27 06:48:03;;;;;;;0.00;0.00;;;4.70;1.00;;;;;;5052096;28;20052;-81
2023/03/27 06:50:30;;;;;;;0.00;0.00;;;4.70;1.00;;;;;;5036980;28;20472;-89
2023/03/27 06:52:57;;;;;;;0.00;0.00;;;4.40;1.00;;;;;;5036529;28;20048;-81
2023/03/27 06:55:25;;;;;;;0.03;0.03;;;4.30;1.10;;;;;;5052694;28;20385;-82
2023/03/27 06:57:53;;;;;;;0.00;0.00;;;4.30;17.30;;;;;;5053583;28;20465;-83
2023/03/27 07:00:23;;;;;;;0.00;0.00;;;4.60;16.40;;;;;;5053099;28;20064;-82
2023/03/27 07:03:04;;;;;;;0.00;0.00;;;4.70;7.60;;;;;;5053010;28;20048;-82
2023/03/27 07:05:38;;;;;;;0.00;0.00;;;4.60;2.90;;;;;;5052767;28;20056;-85
2023/03/27 07:08:06;;;;;;;0.00;0.00;;;4.80;26.80;;;;;;5052679;28;20033;-84
2023/03/27 07:10:33;;;;;;;0.00;0.00;;;5.90;31.60;;;;;;5052927;28;20037;-82
2023/03/27 07:12:58;;;;;;;0.00;0.00;;;6.90;2.30;;;;;;5052035;28;20477;-79
2023/03/27 07:15:25;;;;;;;0.00;0.00;;;7.70;1.00;;;;;;5054271;28;20176;-81
2023/03/27 07:17:59;;;;;;;0.00;0.00;;;8.30;99.90;;;;;;5051985;28;20049;-81
2023/03/27 07:20:27;;;;;;;0.20;0.20;;;9.00;99.90;;;;;;5052559;28;20396;-82
2023/03/27 07:22:55;;;;;;;0.00;0.00;;;9.20;1.00;;;;;;5052881;28;20127;-82
2023/03/27 07:25:21;;;;;;;0.40;0.22;;;9.30;99.90;;;;;;5052912;28;20496;-81
2023/03/27 07:27:46;;;;;;;0.00;0.00;;;9.40;99.90;;;;;;5053170;28;20037;-82
2023/03/27 07:30:13;;;;;;;0.05;0.05;;;9.80;99.90;;;;;;5053817;28;20095;-82
2023/03/27 07:32:41;;;;;;;0.00;0.00;;;10.10;99.90;;;;;;5053451;28;20561;-82
2023/03/27 07:35:08;;;;;;;0.00;0.00;;;10.10;99.90;;;;;;5052249;28;20053;-81
2023/03/27 07:37:36;;;;;;;0.00;0.00;;;10.40;99.90;;;;;;5053396;28;20049;-82
2023/03/27 07:40:06;;;;;;;0.00;0.00;;;11.10;1.00;;;;;;5052486;28;20128;-81
2023/03/27 07:42:33;;;;;;;0.00;0.00;;;11.50;99.90;;;;;;5052765;28;20049;-82
2023/03/27 07:45:02;;;;;;;0.00;0.00;;;11.50;99.90;;;;;;5053205;28;20060;-82
2023/03/27 07:47:28;;;;;;;0.00;0.00;;;11.30;99.90;;;;;;5053295;28;20072;-81
2023/03/27 07:49:54;;;;;;;0.00;0.00;;;11.20;99.60;;;;;;5053117;28;20595;-81
2023/03/27 07:52:20;;;;;;;0.00;0.00;;;11.20;75.80;;;;;;5052724;28;20068;-81
2023/03/27 07:54:47;;;;;;;0.00;0.00;;;11.10;8.20;;;;;;5051950;28;20443;-81
2023/03/27 07:57:14;;;;;;;0.00;0.00;;;10.50;63.90;;;;;;5053337;28;20053;-81
2023/03/27 07:59:40;;;;;;;0.00;0.00;;;10.00;99.90;;;;;;5054561;28;20111;-81
2023/03/27 08:02:08;;;;;;;0.00;0.00;;;9.70;99.90;;;;;;5039316;28;20056;-81
2023/03/27 08:04:35;;;;;;;0.32;0.10;;;9.30;99.90;;;;;;5056971;28;20049;-81
2023/03/27 08:07:01;;;;;;;0.32;0.17;;;9.00;1.00;;;;;;5039589;28;20060;-81
2023/03/27 08:09:26;;;;;;;0.00;0.00;;;8.70;99.90;;;;;;5039118;28;20388;-82
2023/03/27 08:11:52;;;;;;;0.00;0.00;;;8.60;99.90;;;;;;5039463;28;20049;-81
2023/03/27 08:14:18;;;;;;;0.00;0.00;;;8.60;99.90;;;;;;5055758;28;20045;-81
2023/03/27 08:16:43;;;;;;;0.00;0.00;;;8.40;1.00;;;;;;5055287;28;20081;-82
2023/03/27 08:19:10;;;;;;;0.05;0.05;;;8.30;99.90;;;;;;5022652;28;20045;-82
2023/03/27 08:21:37;;;;;;;1.55;0.65;;;8.20;1.00;;;;;;5055658;28;20051;-82
2023/03/27 08:24:03;;;;;;;0.03;0.03;;;8.10;82.10;;;;;;5056392;28;20472;-82
2023/03/27 08:26:32;;;;;;;0.00;0.00;;;8.10;1.00;;;;;;5055820;28;20049;-82
2023/03/27 08:28:58;;;;;;;0.10;0.10;;;8.00;1.00;;;;;;5056029;28;20408;-83
2023/03/27 08:31:26;;;;;;;0.08;0.08;;;8.10;81.80;;;;;;5055343;28;20043;-82
2023/03/27 08:33:52;;;;;;;0.00;0.00;;;8.00;99.90;;;;;;5055715;28;20055;-82
2023/03/27 08:36:18;;;;;;;0.63;0.30;;;7.80;32.30;;;;;;5055361;28;20048;-82
2023/03/27 08:38:45;;;;;;;0.00;0.00;;;7.50;1.00;;;;;;5022269;28;20067;-82
2023/03/27 08:41:26;;;;;;;0.00;0.00;;;7.40;1.00;;;;;;5055493;28;20045;-81
2023/03/27 08:43:55;;;;;;;0.00;0.00;;;6.80;99.90;;;;;;5056044;28;20052;-81
2023/03/27 08:46:39;;;;;;;0.00;0.00;;;6.30;99.90;;;;;;5056045;28;20117;-82
2023/03/27 08:49:13;;;;;;;0.22;0.00;;;5.80;99.90;;;;;;5055211;28;20044;-82
2023/03/27 08:51:46;;;;;;;0.00;0.00;;;5.60;1.00;;;;;;5038833;28;20049;-81
2023/03/27 08:54:31;;;;;;;0.00;0.00;;;5.40;1.00;;;;;;5055945;28;20408;-81
2023/03/27 08:56:58;;;;;;;0.00;0.00;;;5.40;1.00;;;;;;5054998;28;20056;-81
2023/03/27 08:59:27;;;;;;;0.00;0.00;;;5.60;1.00;;;;;;5054600;28;20083;-81
2023/03/27 09:02:12;;;;;;;0.00;0.00;;;5.90;1.00;;;;;;5054821;28;20134;-81
2023/03/27 09:05:03;;;;;;;0.00;0.00;;;6.20;1.00;;;;;;5038649;28;20045;-82
2023/03/27 09:07:48;;;;;;;0.00;0.00;;;6.60;4.10;;;;;;5054719;28;20541;-82
2023/03/27 09:10:43;;;;;;;0.60;0.30;;;6.90;1.00;;;;;;5055072;28;20048;-82
2023/03/27 09:13:22;;;;;;;0.00;0.00;;;7.20;1.00;;;;;;5047032;28;20119;-81
2023/03/27 09:16:17;;;;;;;0.05;0.00;;;7.60;1.00;;;;;;5054994;28;20131;-80
2023/03/27 09:19:08;;;;;;;0.00;0.00;;;7.80;99.90;;;;;;5050010;28;20052;-81
2023/03/27 09:21:52;;;;;;;0.00;0.00;;;8.00;99.90;;;;;;5055329;28;20363;-81
2023/03/27 09:24:32;;;;;;;0.00;0.00;;;8.40;99.90;;;;;;5054873;28;20057;-80
2023/03/27 09:27:10;;;;;;;0.00;0.00;;;8.50;1.00;;;;;;5038550;28;20053;-80
2023/03/27 09:29:40;;;;;;;0.80;0.60;;;8.50;99.90;;;;;;5054700;28;20045;-80
2023/03/27 09:32:15;;;;;;;0.00;0.00;;;8.60;99.90;;;;;;5055302;28;20183;-81
2023/03/27 09:34:42;;;;;;;0.00;0.00;;;8.60;19.70;;;;;;5055300;28;20045;-80
2023/03/27 09:37:16;;;;;;;0.05;0.00;;;8.80;1.00;;;;;;5054522;28;20051;-80
2023/03/27 09:39:50;;;;;;;0.00;0.00;;;8.90;1.00;;;;;;5054277;28;20044;-80
2023/03/27 09:42:25;;;;;;;0.00;0.00;;;9.10;76.00;;;;;;5055732;28;20102;-80
2023/03/27 09:44:57;;;;;;;0.00;0.00;;;8.80;1.00;;;;;;5055075;28;20053;-80
2023/03/27 09:47:34;;;;;;;0.20;0.20;;;8.50;99.90;;;;;;5054233;28;20489;-81
2023/03/27 09:50:15;;;;;;;0.00;0.00;;;8.00;99.90;;;;;;5053992;28;20505;-80
2023/03/27 09:52:42;;;;;;;0.00;0.00;;;7.40;99.90;;;;;;5055248;28;20049;-80
2023/03/27 09:55:51;;;;;;;0.08;0.08;;;7.10;99.90;;;;;;5053910;28;20049;-80
2023/03/27 09:58:23;;;;;;;0.00;0.00;;;7.10;1.00;;;;;;5016271;28;20045;-81
2023/03/27 10:01:09;;;;;;;0.00;0.00;;;7.60;1.00;;;;;;5032610;28;20106;-80
2023/03/27 10:03:40;;;;;;;0.00;0.00;;;7.90;1.00;;;;;;5053922;28;20106;-80
2023/03/27 10:06:09;;;;;;;0.00;0.00;;;8.10;1.00;;;;;;5037873;28;20053;-81
2023/03/27 10:08:49;;;;;;;0.00;0.00;;;8.50;1.00;;;;;;5055092;28;20045;-81
2023/03/27 10:11:31;;;;;;;0.00;0.00;;;8.70;99.90;;;;;;5054544;28;20091;-81
2023/03/27 10:14:00;;;;;;;0.00;0.00;;;8.90;27.20;;;;;;5054305;28;20063;-80
2023/03/27 10:16:27;;;;;;;0.00;0.00;;;9.00;99.90;;;;;;5036630;28;20501;-81
2023/03/27 10:18:57;;;;;;;0.00;0.00;;;9.20;1.00;;;;;;5036857;28;20056;-81
2023/03/27 10:21:30;;;;;;;0.00;0.00;;;9.40;99.90;;;;;;5037109;28;20133;-80
2023/03/27 10:24:05;;;;;;;0.20;0.20;;;9.60;99.90;;;;;;5053255;28;20041;-80
2023/03/27 10:26:31;;;;;;;;;;;9.60;99.90;;;;;;5037425;28;20090;-81
2023/03/27 10:29:03;;;;;;;0.00;0.00;;;9.50;99.90;;;;;;5053248;28;20463;-81
2023/03/27 10:31:31;;;;;;;0.00;0.00;;;9.50;99.90;;;;;;5037168;28;20534;-80
2023/03/27 10:34:00;;;;;;;0.00;0.00;;;9.50;99.90;;;;;;5053454;28;20099;-79
2023/03/27 10:36:30;;;;;;;0.00;0.00;;;9.30;99.90;;;;;;5053123;28;20041;-80
2023/03/27 10:39:04;;;;;;;0.00;0.00;;;9.50;99.90;;;;;;5053085;28;20090;-80
2023/03/27 10:41:33;;;;;;;0.00;0.00;;;9.80;1.00;;;;;;5053492;28;20431;-80
2023/03/27 10:44:00;;;;;;;0.00;0.00;;;10.00;99.90;;;;;;5053970;28;20079;-81
2023/03/27 10:46:27;;;;;;;0.00;0.00;;;10.20;99.90;;;;;;5052981;28;20060;-80
2023/03/27 10:49:15;;;;;;;0.00;0.00;;;10.50;99.90;;;;;;5052717;28;20115;-80
2023/03/27 10:52:17;;;;;;;1.35;0.10;;;10.60;59.10;;;;;;5053556;28;20366;-81
2023/03/27 10:54:53;;;;;;;0.00;0.00;;;10.50;1.00;;;;;;5052917;28;20586;-80
2023/03/27 10:57:23;;;;;;;0.00;0.00;;;10.70;35.20;;;;;;5053187;28;20045;-80
2023/03/27 11:00:12;;;;;;;0.00;0.00;;;11.00;1.00;;;;;;5052801;28;20107;-80
2023/03/27 11:02:59;;;;;;;0.00;0.00;;;10.90;1.00;;;;;;5054313;28;20452;-80
2023/03/27 11:05:38;;;;;;;0.25;0.25;;;10.40;99.90;;;;;;5036353;28;20057;-80
2023/03/27 11:08:38;;;;;;;0.05;0.05;;;10.40;99.90;;;;;;5053304;28;20045;-81
2023/03/27 11:11:28;;;;;;;0.00;0.00;;;10.50;99.90;;;;;;5036797;28;20365;-80
2023/03/27 11:14:01;;;;;;;0.00;0.00;;;10.70;99.90;;;;;;5051946;28;20577;-79
2023/03/27 11:16:37;;;;;;;0.00;0.00;;;10.50;99.90;;;;;;5052263;28;20203;-81
2023/03/27 11:19:24;;;;;;;0.00;0.00;;;10.30;99.90;;;;;;5052555;28;20143;-81
2023/03/27 11:22:02;;;;;;;0.00;0.00;;;10.00;99.90;;;;;;5052537;28;20060;-80
2023/03/27 11:24:39;;;;;;;0.00;0.00;;;9.90;99.90;;;;;;5053341;28;20362;-81
2023/03/27 11:27:11;;;;;;;0.00;0.00;;;10.00;99.90;;;;;;5052671;28;20118;-81
2023/03/27 11:30:11;;;;;;;0.00;0.00;;;10.30;99.90;;;;;;5035893;28;20045;-78
2023/03/27 11:33:00;;;;;;;0.00;0.00;;;10.50;99.90;;;;;;5053097;28;20102;-82
2023/03/27 11:35:43;;;;;;;0.88;0.20;;;10.90;99.90;;;;;;5038846;28;20041;-81
2023/03/27 11:38:23;;;;;;;0.00;0.00;;;11.00;99.90;;;;;;5056474;28;20496;-81
2023/03/27 11:40:50;;;;;;;0.00;0.00;;;10.70;99.90;;;;;;5057298;28;20107;-81
2023/03/27 11:43:17;;;;;;;0.38;0.32;;;10.50;99.90;;;;;;5056213;28;20127;-81
2023/03/27 11:45:51;;;;;;;0.35;0.35;;;10.50;99.90;;;;;;5056275;28;20056;-80
2023/03/27 11:48:31;;;;;;;0.00;0.00;;;10.50;99.90;;;;;;5056224;28;20044;-83
2023/03/27 11:51:16;;;;;;;0.00;0.00;;;10.30;99.90;;;;;;5056904;28;20040;-83
2023/03/27 11:54:00;;;;;;;0.00;0.00;;;10.10;99.90;;;;;;5040216;28;20475;-83
2023/03/27 11:56:39;;;;;;;0.00;0.00;;;9.90;99.90;;;;;;5039632;28;20116;-84
2023/03/27 11:59:26;;;;;;;0.00;0.00;;;9.70;99.90;;;;;;5056457;28;20091;-83
2023/03/27 12:02:13;;;;;;;0.00;0.00;;;9.50;99.90;;;;;;5040180;28;20041;-82
2023/03/27 12:05:00;;;;;;;0.00;0.00;;;9.40;99.90;;;;;;5040300;28;20342;-82
2023/03/27 12:07:51;;;;;;;0.00;0.00;;;9.60;99.90;;;;;;5056661;28;20136;-82
2023/03/27 12:10:28;;;;;;;0.20;0.10;;;10.10;99.90;;;;;;5056129;28;20136;-82
2023/03/27 12:13:12;;;;;;;0.00;0.00;;;10.20;99.90;;;;;;5056930;28;20052;-82
2023/03/27 12:15:56;;;;;;;0.00;0.00;;;10.00;99.90;;;;;;5056685;28;20131;-82
2023/03/27 12:18:34;;;;;;;0.00;0.00;;;9.40;99.90;;;;;;5055942;28;20056;-82
2023/03/27 12:21:09;;;;;;;0.00;0.00;;;9.00;99.90;;;;;;5055837;28;20045;-82
2023/03/27 12:23:58;;;;;;;0.00;0.00;;;8.70;99.90;;;;;;5055486;28;20041;-82
2023/03/27 12:26:55;;;;;;;0.00;0.00;;;8.90;99.90;;;;;;5055457;28;20055;-81
2023/03/27 12:29:33;;;;;;;0.00;0.00;;;9.40;1.00;;;;;;5039297;28;20041;-81
2023/03/27 12:32:19;;;;;;;0.00;0.00;;;10.00;99.90;;;;;;5055939;28;20045;-81
2023/03/27 12:34:53;;;;;;;0.00;0.00;;;10.30;99.90;;;;;;5056201;28;20480;-82
2023/03/27 12:37:38;;;;;;;0.00;0.00;;;10.70;99.90;;;;;;5039235;28;20044;-81
2023/03/27 12:40:36;;;;;;;0.00;0.00;;;11.00;99.90;;;;;;5038793;28;20135;-81
2023/03/27 12:43:20;;;;;;;0.00;0.00;;;11.40;99.90;;;;;;5038782;28;20044;-81
2023/03/27 12:46:22;;;;;;;0.20;0.20;;;11.90;99.90;;;;;;5037545;28;20155;-82
2023/03/27 12:49:22;;;;;;;0.00;0.00;;;12.10;99.90;;;;;;5055155;28;20186;-82
2023/03/27 12:51:56;;;;;;;0.10;0.00;;;11.20;99.90;;;;;;5038323;28;20071;-82
2023/03/27 12:55:04;;;;;;;0.00;0.00;;;10.30;99.90;;;;;;5055401;28;20099;-81
2023/03/27 12:57:30;;;;;;;0.00;0.00;;;9.30;99.90;;;;;;5027286;28;20287;-81
2023/03/27 13:00:09;;;;;;;0.00;0.00;;;8.70;1.00;;;;;;5039241;28;20047;-81
2023/03/27 13:03:19;;;;;;;0.00;0.00;;;8.40;99.90;;;;;;5055235;28;20049;-81
2023/03/27 13:06:15;;;;;;;0.00;0.00;;;8.70;99.90;;;;;;5000986;28;20060;-82
2023/03/27 13:09:20;;;;;;;0.00;0.00;;;9.20;1.00;;;;;;5034374;28;20046;-81
2023/03/27 13:12:10;;;;;;;0.00;0.00;;;9.60;99.90;;;;;;5015331;28;20102;-81
2023/03/27 13:14:58;;;;;;;0.20;0.20;;;10.00;1.00;;;;;;5054635;28;20283;-81
2023/03/27 13:17:42;;;;;;;1.38;0.35;;;10.20;99.90;;;;;;5054110;28;20064;-81
2023/03/27 13:20:23;;;;;;;0.00;0.00;;;10.30;77.60;;;;;;5038858;28;20053;-82
2023/03/27 13:23:17;;;;;;;0.00;0.00;;;10.00;1.00;;;;;;5054681;28;20120;-81
2023/03/27 13:26:08;;;;;;;0.00;0.00;;;9.90;1.00;;;;;;5052566;28;20065;-81
2023/03/27 13:28:41;;;;;;;0.00;0.00;;;9.60;1.00;;;;;;5054398;28;20098;-82
2023/03/27 13:31:10;;;;;;;0.00;0.00;;;9.40;1.00;;;;;;5054653;28;20049;-81